Terminal Aerodrome Forecast
Issued by NWS

Home | Current Version | Previous Version | Text Only | Print | Product List | Glossary On
Versions: 1 2 3 4 5 6 7 8 9 10 11 12 13 14 15 16
000
FTUS45 KTFX 152300 CCA
TAFLWT
TAF COR
KLWT 152343Z 1600/1624 30015G30KT P6SM VCSH BKN040 OVC050
     FM160300 32012G22KT P6SM -SHRASN SCT015 BKN030
      TEMPO 1603/1606 BKN015
     FM160600 32010KT P6SM VCSH BKN015
      TEMPO 1606/1609 5SM -SHRASN
     FM161500 05010KT P6SM VCSH SCT020 BKN035=

USA.gov is the U.S. government's official web portal to all federal, state and local government web resources and services.